Time;durP1;ratioP1;P1;durP2;ratioP2;P2;SDS_P1;SDS_P2;PMS_P1;PMS_P2;Temp;Humidity;BMP_temperature;BMP_pressure;BME280_temperature;BME280_humidity;BME280_pressure;Samples;Min_cycle;Max_cycle;Signal;HPM_P1;HPM_P2
2023/10/19 00:00:55;;;;;;;7.90;3.20;;;11.80;99.90;;;;;;5012465;28;20125;-56
2023/10/19 00:03:23;;;;;;;7.07;3.60;;;11.80;99.90;;;;;;5032719;28;20037;-56
2023/10/19 00:05:49;;;;;;;5.83;3.00;;;11.90;99.90;;;;;;5032559;28;20398;-56
2023/10/19 00:08:15;;;;;;;6.93;2.87;;;11.90;99.90;;;;;;5032473;28;20029;-56
2023/10/19 00:10:43;;;;;;;5.63;3.10;;;11.90;99.90;;;;;;5051121;28;20072;-56
2023/10/19 00:13:11;;;;;;;5.47;3.00;;;11.90;99.90;;;;;;5052153;28;20037;-54
2023/10/19 00:15:46;;;;;;;5.85;2.70;;;12.00;99.90;;;;;;5052137;28;20029;-54
2023/10/19 00:20:59;;;;;;;5.53;2.85;;;12.00;99.90;;;;;;5034500;28;20506;-55
2023/10/19 00:23:31;;;;;;;6.30;3.13;;;12.10;99.90;;;;;;5052012;28;20050;-56
2023/10/19 00:26:08;;;;;;;5.70;2.47;;;12.10;99.90;;;;;;5051862;28;20032;-55
2023/10/19 00:28:35;;;;;;;6.40;2.60;;;12.10;99.90;;;;;;5051682;28;20021;-54
2023/10/19 00:31:07;;;;;;;5.87;2.87;;;12.20;99.90;;;;;;5051990;28;20104;-56
2023/10/19 00:33:33;;;;;;;5.43;3.00;;;12.20;99.90;;;;;;5033828;28;20036;-56
2023/10/19 00:36:07;;;;;;;5.47;2.83;;;12.20;99.90;;;;;;5017764;28;20033;-56
2023/10/19 00:43:36;;;;;;;8.70;3.10;;;12.30;99.90;;;;;;5033928;28;20060;-56
2023/10/19 00:46:04;;;;;;;5.93;2.60;;;12.40;99.90;;;;;;5051795;28;20547;-55
2023/10/19 00:48:32;;;;;;;6.47;3.00;;;12.40;99.90;;;;;;5033628;28;20043;-56
2023/10/19 00:51:09;;;;;;;6.73;2.90;;;12.40;99.90;;;;;;5033904;28;20043;-56
2023/10/19 00:53:41;;;;;;;6.33;2.87;;;12.40;99.90;;;;;;5033533;28;20112;-56
2023/10/19 00:56:09;;;;;;;9.03;3.27;;;12.50;99.90;;;;;;5051837;28;20033;-55
2023/10/19 00:58:39;;;;;;;7.60;3.40;;;12.40;99.90;;;;;;5051383;28;20366;-56
2023/10/19 01:01:05;;;;;;;7.67;3.43;;;12.50;99.90;;;;;;5033701;28;20378;-56
2023/10/19 01:03:36;;;;;;;7.77;3.47;;;12.50;99.90;;;;;;5033303;28;20041;-54
2023/10/19 01:06:09;;;;;;;9.20;4.10;;;12.50;99.90;;;;;;5051300;28;20425;-53
2023/10/19 01:08:41;;;;;;;5.73;3.10;;;12.50;99.90;;;;;;5033269;28;20079;-54
2023/10/19 01:11:15;;;;;;;7.20;4.20;;;12.50;99.90;;;;;;5051152;28;20438;-52
2023/10/19 01:13:44;;;;;;;6.10;3.37;;;12.50;99.90;;;;;;5051184;28;20026;-52
2023/10/19 01:16:20;;;;;;;6.80;3.60;;;12.50;99.90;;;;;;5033470;28;20025;-52
2023/10/19 01:18:55;;;;;;;8.03;3.83;;;12.50;99.90;;;;;;5033098;28;20082;-55
2023/10/19 01:21:37;;;;;;;6.40;3.87;;;12.50;99.90;;;;;;5051392;28;20040;-51
2023/10/19 01:24:12;;;;;;;5.47;2.93;;;12.50;99.90;;;;;;5051183;28;20041;-54
2023/10/19 01:26:38;;;;;;;7.37;3.37;;;12.60;99.90;;;;;;5051180;28;20054;-54
2023/10/19 01:29:14;;;;;;;13.20;3.83;;;12.60;99.90;;;;;;5033452;28;20037;-52
2023/10/19 01:31:52;;;;;;;7.10;3.33;;;12.60;99.90;;;;;;5054229;28;20039;-55
2023/10/19 01:34:21;;;;;;;6.20;3.43;;;12.60;99.90;;;;;;5036480;28;20466;-55
2023/10/19 01:36:50;;;;;;;;;;;12.70;99.90;;;;;;5036926;28;20025;-55
2023/10/19 01:39:18;;;;;;;6.85;3.42;;;12.70;99.90;;;;;;5019453;28;20344;-53
2023/10/19 01:41:45;;;;;;;6.03;3.67;;;12.80;99.90;;;;;;5036009;28;20112;-51
2023/10/19 01:44:15;;;;;;;10.10;3.37;;;12.80;99.90;;;;;;5036035;28;20051;-53
2023/10/19 01:46:43;;;;;;;7.83;3.40;;;12.90;99.90;;;;;;5036212;28;20128;-50
2023/10/19 01:49:10;;;;;;;6.17;3.90;;;12.90;99.90;;;;;;5035482;28;20116;-51
2023/10/19 01:51:39;;;;;;;9.90;3.97;;;12.90;99.90;;;;;;5053637;28;20047;-54
2023/10/19 01:54:06;;;;;;;;;;;12.90;99.90;;;;;;5036872;28;20029;-55
2023/10/19 01:56:35;;;;;;;7.03;3.87;;;13.00;99.90;;;;;;5035849;28;19913;-54
2023/10/19 01:59:03;;;;;;;6.47;3.25;;;12.90;99.90;;;;;;5035508;28;20029;-54
2023/10/19 02:01:31;;;;;;;8.05;3.70;;;13.00;99.90;;;;;;5035540;28;20404;-55
2023/10/19 02:03:59;;;;;;;6.87;3.83;;;13.00;99.90;;;;;;5053517;28;20386;-53
2023/10/19 02:06:37;;;;;;;7.13;3.63;;;12.90;99.90;;;;;;5053750;28;20519;-52
2023/10/19 02:11:55;;;;;;;6.60;3.30;;;13.00;99.90;;;;;;5035728;28;20107;-50
2023/10/19 02:14:21;;;;;;;7.00;4.47;;;13.00;99.90;;;;;;5035679;28;20401;-53
2023/10/19 02:16:52;;;;;;;6.80;3.40;;;13.00;99.90;;;;;;5035658;28;20289;-50
2023/10/19 02:19:23;;;;;;;7.47;3.60;;;13.10;99.90;;;;;;5034980;28;20029;-55
2023/10/19 02:21:53;;;;;;;9.13;3.87;;;13.10;99.90;;;;;;5053425;28;20040;-55
2023/10/19 02:24:19;;;;;;;6.53;3.63;;;13.10;99.90;;;;;;5035408;28;20094;-52
2023/10/19 02:26:47;;;;;;;6.20;3.63;;;13.10;99.90;;;;;;5035361;28;20041;-54
2023/10/19 02:29:13;;;;;;;9.13;4.20;;;13.10;99.90;;;;;;5035208;28;20040;-53
2023/10/19 02:31:40;;;;;;;6.43;3.47;;;13.10;99.90;;;;;;5053468;28;20032;-55
2023/10/19 02:34:09;;;;;;;6.07;3.50;;;13.20;99.90;;;;;;5035339;28;20029;-52
2023/10/19 02:36:37;;;;;;;8.18;3.90;;;13.20;99.90;;;;;;5035393;28;20083;-52
2023/10/19 02:39:08;;;;;;;9.23;4.03;;;13.20;99.90;;;;;;5034980;28;20033;-50
2023/10/19 02:41:36;;;;;;;6.67;3.37;;;13.20;99.90;;;;;;5052839;28;20489;-51
2023/10/19 02:44:09;;;;;;;8.07;3.40;;;13.20;99.90;;;;;;5052854;28;20040;-51
2023/10/19 02:46:38;;;;;;;6.20;3.20;;;13.20;99.90;;;;;;5035147;28;20052;-49
2023/10/19 02:49:11;;;;;;;7.15;3.97;;;13.30;99.90;;;;;;5035790;28;20045;-53
2023/10/19 02:51:37;;;;;;;5.40;3.08;;;13.30;99.90;;;;;;5053707;28;20033;-54
2023/10/19 02:54:03;;;;;;;4.63;2.67;;;13.30;99.90;;;;;;5053821;28;20029;-52
2023/10/19 02:56:31;;;;;;;6.00;2.85;;;13.30;99.90;;;;;;5034830;28;20029;-52
2023/10/19 02:59:06;;;;;;;5.65;2.42;;;13.40;99.90;;;;;;5035082;28;20025;-51
2023/10/19 03:01:34;;;;;;;3.50;2.15;;;13.50;99.90;;;;;;5034776;28;20047;-55
2023/10/19 03:04:01;;;;;;;3.58;2.00;;;13.50;99.90;;;;;;5034793;28;20040;-54
2023/10/19 03:06:35;;;;;;;4.93;1.77;;;13.50;99.90;;;;;;5034337;28;20064;-54
2023/10/19 03:09:28;;;;;;;5.20;2.00;;;13.60;99.90;;;;;;5052277;28;20436;-53
2023/10/19 03:11:59;;;;;;;3.90;2.00;;;13.60;99.90;;;;;;5052388;28;20033;-54
2023/10/19 03:14:25;;;;;;;4.35;2.35;;;13.70;99.90;;;;;;5052286;28;20025;-55
2023/10/19 03:16:52;;;;;;;6.00;2.30;;;13.70;99.90;;;;;;5052239;28;20386;-53
2023/10/19 03:19:18;;;;;;;5.13;2.00;;;13.70;99.90;;;;;;5034046;28;20029;-52
2023/10/19 03:21:49;;;;;;;4.22;2.10;;;13.80;99.90;;;;;;5034229;28;20056;-53
2023/10/19 03:24:23;;;;;;;4.18;2.47;;;13.80;99.90;;;;;;5034353;28;20028;-52
2023/10/19 03:26:54;;;;;;;8.43;2.58;;;13.80;99.90;;;;;;5053129;28;20386;-54
2023/10/19 03:29:30;;;;;;;5.85;2.53;;;13.90;99.90;;;;;;5051996;28;20036;-53
2023/10/19 03:31:56;;;;;;;6.10;2.60;;;13.80;99.90;;;;;;5034421;28;20507;-54
2023/10/19 03:34:23;;;;;;;4.35;2.45;;;13.80;99.90;;;;;;5051957;28;20029;-55
2023/10/19 03:36:50;;;;;;;4.22;2.58;;;13.80;99.90;;;;;;5034131;28;20132;-53
2023/10/19 03:39:17;;;;;;;6.57;3.17;;;13.80;99.90;;;;;;5051875;28;20055;-54
2023/10/19 03:41:45;;;;;;;;;;;13.80;99.90;;;;;;5034664;28;20035;-52
2023/10/19 03:46:57;;;;;;;5.20;2.45;;;13.70;99.90;;;;;;5034017;28;20124;-52
2023/10/19 03:49:33;;;;;;;5.85;2.78;;;13.80;99.90;;;;;;5033621;28;20033;-54
2023/10/19 03:54:39;;;;;;;5.45;2.38;;;13.80;99.90;;;;;;5051249;28;20021;-55
2023/10/19 03:57:11;;;;;;;3.78;2.10;;;13.90;99.90;;;;;;5034026;28;20021;-52
2023/10/19 03:59:41;;;;;;;4.75;2.22;;;13.90;99.90;;;;;;5033354;28;20037;-54
2023/10/19 04:02:13;;;;;;;3.88;2.15;;;13.90;99.90;;;;;;5051655;28;20489;-50
2023/10/19 04:04:43;;;;;;;4.28;2.60;;;13.90;99.90;;;;;;5051162;28;20048;-54
2023/10/19 04:07:22;;;;;;;5.60;2.17;;;13.90;99.90;;;;;;5051574;28;20082;-54
2023/10/19 04:10:09;;;;;;;4.30;1.90;;;13.90;99.90;;;;;;5041868;28;20037;-52
2023/10/19 04:12:37;;;;;;;3.30;1.73;;;14.00;99.90;;;;;;5050383;28;20044;-52
2023/10/19 04:17:42;;;;;;;3.65;1.90;;;14.00;99.90;;;;;;5048153;28;20040;-54
2023/10/19 04:20:30;;;;;;;4.38;1.63;;;14.00;99.90;;;;;;5039749;28;20029;-55
2023/10/19 04:22:54;;;;;;;7.55;1.98;;;14.00;99.90;;;;;;5046559;28;20041;-55
2023/10/19 04:25:24;;;;;;;4.25;2.00;;;14.00;99.90;;;;;;5039573;28;20072;-54
2023/10/19 04:27:49;;;;;;;3.38;1.80;;;14.10;99.90;;;;;;5044634;28;20051;-52
2023/10/19 04:30:16;;;;;;;4.03;1.88;;;14.10;99.90;;;;;;5041418;28;20469;-53
2023/10/19 04:32:42;;;;;;;3.47;2.15;;;14.00;99.90;;;;;;5048218;28;20373;-54
2023/10/19 04:35:13;;;;;;;3.42;2.10;;;14.10;99.90;;;;;;5040679;28;20044;-52
2023/10/19 04:37:42;;;;;;;3.28;1.67;;;14.10;99.90;;;;;;5025221;28;20021;-53
2023/10/19 04:40:09;;;;;;;3.22;1.83;;;14.10;99.90;;;;;;5038058;28;20033;-52
2023/10/19 04:42:36;;;;;;;6.32;2.65;;;14.10;99.90;;;;;;5038233;28;20065;-54
2023/10/19 04:45:03;;;;;;;5.78;3.05;;;14.20;99.90;;;;;;5039812;28;20540;-54
2023/10/19 04:47:28;;;;;;;3.15;2.00;;;14.20;99.90;;;;;;5031965;28;20030;-53
2023/10/19 04:49:55;;;;;;;3.58;1.90;;;14.20;99.90;;;;;;5038496;28;20025;-54
2023/10/19 04:52:20;;;;;;;3.05;1.60;;;14.20;99.90;;;;;;5038461;28;20029;-55
2023/10/19 04:54:46;;;;;;;4.22;2.10;;;14.20;99.90;;;;;;5037565;28;20067;-54
2023/10/19 04:57:12;;;;;;;3.17;1.70;;;14.10;99.90;;;;;;5037579;28;20370;-54
2023/10/19 04:59:37;;;;;;;2.65;1.77;;;14.20;99.90;;;;;;5037553;28;20029;-52
2023/10/19 05:02:04;;;;;;;4.47;1.92;;;14.20;99.90;;;;;;5038335;28;20100;-55
2023/10/19 05:04:29;;;;;;;2.97;1.83;;;14.10;99.90;;;;;;5038925;28;20390;-54
2023/10/19 05:06:55;;;;;;;3.58;1.63;;;14.10;99.90;;;;;;5042986;28;20025;-54
2023/10/19 05:09:21;;;;;;;3.72;1.80;;;14.10;99.90;;;;;;5045282;28;20033;-52
2023/10/19 05:11:47;;;;;;;3.72;1.70;;;14.10;99.90;;;;;;5045579;28;20033;-52
2023/10/19 05:14:14;;;;;;;3.17;1.77;;;14.20;99.90;;;;;;5051759;28;20126;-54
2023/10/19 05:16:42;;;;;;;2.70;1.50;;;14.10;99.90;;;;;;5039465;28;20075;-54
2023/10/19 05:19:08;;;;;;;2.47;1.45;;;14.10;99.90;;;;;;5042982;28;20025;-50
2023/10/19 05:21:34;;;;;;;3.22;1.73;;;14.10;99.90;;;;;;5006192;28;20120;-52
2023/10/19 05:24:00;;;;;;;2.58;1.83;;;14.10;99.90;;;;;;5033921;28;20037;-55
2023/10/19 05:26:27;;;;;;;5.22;2.15;;;14.10;99.90;;;;;;5045200;28;20033;-50
2023/10/19 05:28:52;;;;;;;2.80;1.73;;;14.10;99.90;;;;;;5038633;28;20033;-54
2023/10/19 05:31:18;;;;;;;2.78;1.40;;;14.10;99.90;;;;;;5034677;28;20049;-51
2023/10/19 05:33:43;;;;;;;3.28;1.90;;;14.10;99.90;;;;;;5040986;28;20025;-52
2023/10/19 05:36:09;;;;;;;5.20;2.05;;;14.10;99.90;;;;;;5025864;28;20025;-52
2023/10/19 05:38:35;;;;;;;4.28;1.98;;;14.00;99.90;;;;;;5046668;28;20029;-52
2023/10/19 05:41:00;;;;;;;5.70;2.35;;;14.10;99.90;;;;;;5041544;28;20040;-55
2023/10/19 05:43:28;;;;;;;3.72;2.00;;;14.10;99.90;;;;;;5038045;28;20021;-53
2023/10/19 05:45:53;;;;;;;4.85;2.05;;;14.10;99.90;;;;;;5037295;28;20021;-53
2023/10/19 05:48:20;;;;;;;4.85;2.10;;;14.10;99.90;;;;;;5043532;28;20048;-54
2023/10/19 05:50:46;;;;;;;2.95;1.75;;;14.00;99.90;;;;;;5018371;28;20022;-54
2023/10/19 05:53:11;;;;;;;3.97;1.88;;;14.10;99.90;;;;;;5042542;28;20421;-53
2023/10/19 05:55:39;;;;;;;5.38;2.25;;;14.10;99.90;;;;;;5051538;28;20027;-50
2023/10/19 05:58:05;;;;;;;6.32;2.17;;;14.10;99.90;;;;;;5034540;28;20060;-55
2023/10/19 06:00:31;;;;;;;8.60;3.00;;;14.10;99.90;;;;;;5050839;28;20020;-55
2023/10/19 06:02:59;;;;;;;19.45;9.52;;;14.10;99.90;;;;;;5050347;28;20473;-52
2023/10/19 06:05:25;;;;;;;4.97;2.03;;;14.10;99.90;;;;;;5039504;28;20124;-54
2023/10/19 06:07:51;;;;;;;7.07;3.03;;;14.10;99.90;;;;;;5032280;28;20108;-55
2023/10/19 06:10:22;;;;;;;4.40;1.73;;;14.10;99.90;;;;;;5042184;28;20385;-54
2023/10/19 06:12:51;;;;;;;5.43;2.20;;;14.10;99.90;;;;;;5044371;28;20167;-55
2023/10/19 06:15:20;;;;;;;4.10;2.20;;;14.10;99.90;;;;;;5038956;28;20017;-54
2023/10/19 06:17:46;;;;;;;;;;;14.10;99.90;;;;;;5038214;28;20017;-51
2023/10/19 06:20:24;;;;;;;4.28;1.80;;;14.10;99.90;;;;;;5033942;28;19913;-55
2023/10/19 06:22:51;;;;;;;2.33;1.40;;;14.10;99.90;;;;;;5051731;28;20029;-54
2023/10/19 06:25:21;;;;;;;3.55;1.70;;;14.10;99.90;;;;;;5042361;28;20440;-53
2023/10/19 06:27:48;;;;;;;4.35;1.70;;;14.10;99.90;;;;;;5036214;28;20443;-52
2023/10/19 06:30:18;;;;;;;4.45;1.88;;;14.10;99.90;;;;;;5041051;28;20028;-53
2023/10/19 06:32:47;;;;;;;4.88;1.95;;;14.10;99.90;;;;;;5051107;28;20021;-50
2023/10/19 06:35:13;;;;;;;6.03;2.20;;;14.20;99.90;;;;;;5040473;28;20497;-53
2023/10/19 06:37:40;;;;;;;4.95;1.88;;;14.20;99.90;;;;;;5037003;28;20070;-55
2023/10/19 06:40:06;;;;;;;2.92;1.80;;;14.10;99.90;;;;;;5032488;28;20163;-55
2023/10/19 06:42:32;;;;;;;4.97;2.20;;;14.20;99.90;;;;;;5046612;28;20029;-54
2023/10/19 06:44:57;;;;;;;6.20;1.80;;;14.20;99.90;;;;;;5047094;28;20044;-54
2023/10/19 06:47:23;;;;;;;4.65;2.13;;;14.10;99.90;;;;;;5039286;28;20039;-54
2023/10/19 06:49:50;;;;;;;3.60;1.50;;;14.10;99.90;;;;;;5020091;28;20033;-55
2023/10/19 06:52:15;;;;;;;4.40;1.98;;;14.20;99.90;;;;;;5035121;28;20033;-50
2023/10/19 06:54:41;;;;;;;3.92;1.90;;;14.10;99.90;;;;;;5050827;28;20028;-49
2023/10/19 06:57:08;;;;;;;4.75;1.80;;;14.10;99.90;;;;;;5041776;28;20030;-52
2023/10/19 06:59:36;;;;;;;4.65;1.73;;;14.20;99.90;;;;;;5044257;28;20098;-54
2023/10/19 07:02:02;;;;;;;4.85;2.15;;;14.30;99.90;;;;;;5025617;28;20083;-52
2023/10/19 07:04:29;;;;;;;4.07;1.95;;;14.20;99.90;;;;;;5037313;28;20474;-56
2023/10/19 07:06:55;;;;;;;5.68;1.67;;;14.30;99.90;;;;;;5046472;28;20032;-52
2023/10/19 07:09:21;;;;;;;2.28;1.40;;;14.30;99.90;;;;;;5040989;28;20107;-54
2023/10/19 07:11:47;;;;;;;3.38;1.65;;;14.30;99.90;;;;;;5043233;28;20033;-55
2023/10/19 07:14:13;;;;;;;4.18;1.70;;;14.20;99.90;;;;;;5041229;28;20597;-50
2023/10/19 07:16:40;;;;;;;3.92;1.77;;;14.30;99.90;;;;;;5050223;28;20028;-53
2023/10/19 07:19:06;;;;;;;5.38;1.55;;;14.50;99.90;;;;;;5048818;28;20127;-53
2023/10/19 07:21:35;;;;;;;4.60;1.73;;;14.60;99.90;;;;;;5045872;28;20116;-54
2023/10/19 07:24:05;;;;;;;5.93;2.00;;;14.60;99.90;;;;;;5045654;28;20037;-51
2023/10/19 07:26:33;;;;;;;4.13;2.00;;;14.60;99.90;;;;;;5041438;28;20116;-50
2023/10/19 07:28:59;;;;;;;6.07;1.85;;;14.60;99.90;;;;;;5047518;28;20032;-53
2023/10/19 07:31:27;;;;;;;4.63;2.20;;;14.70;99.90;;;;;;5039737;28;20037;-51
2023/10/19 07:33:55;;;;;;;3.42;1.80;;;14.60;99.90;;;;;;5034475;28;20021;-51
2023/10/19 07:36:21;;;;;;;5.07;1.90;;;14.60;99.90;;;;;;5030907;28;20526;-55
2023/10/19 07:38:47;;;;;;;4.30;1.90;;;14.50;99.90;;;;;;5036631;28;20127;-55
2023/10/19 07:41:13;;;;;;;4.38;2.20;;;14.50;99.90;;;;;;5032772;28;20040;-52
2023/10/19 07:43:39;;;;;;;4.25;1.92;;;14.50;99.90;;;;;;5030873;28;20025;-52
2023/10/19 07:46:05;;;;;;;5.05;1.92;;;14.40;99.90;;;;;;5037714;28;20202;-54
2023/10/19 07:48:30;;;;;;;4.22;2.30;;;14.40;99.90;;;;;;5030977;28;20037;-53
2023/10/19 07:50:56;;;;;;;5.30;2.30;;;14.40;99.90;;;;;;5031163;28;20025;-53
2023/10/19 07:53:24;;;;;;;5.25;2.10;;;14.40;99.90;;;;;;5037494;28;20021;-54
2023/10/19 07:55:50;;;;;;;4.78;2.17;;;14.40;99.90;;;;;;5036548;28;20033;-53
2023/10/19 07:58:16;;;;;;;3.78;2.17;;;14.40;99.90;;;;;;5038315;28;20476;-53
2023/10/19 08:00:42;;;;;;;4.75;2.22;;;14.40;99.90;;;;;;5036337;28;20096;-54
2023/10/19 08:03:08;;;;;;;4.70;2.05;;;14.50;99.90;;;;;;5042174;28;20030;-54
2023/10/19 08:05:35;;;;;;;3.90;2.10;;;14.50;99.90;;;;;;5046302;28;20407;-53
2023/10/19 08:08:03;;;;;;;5.32;2.38;;;14.50;99.90;;;;;;5038452;28;20041;-52
2023/10/19 08:10:29;;;;;;;6.68;2.67;;;14.50;99.90;;;;;;5032832;28;20028;-52
2023/10/19 08:12:55;;;;;;;6.55;2.60;;;14.60;99.90;;;;;;5034481;28;20104;-54
2023/10/19 08:15:21;;;;;;;7.60;2.97;;;14.60;99.90;;;;;;5030634;28;20029;-53
2023/10/19 08:17:53;;;;;;;4.75;2.40;;;14.60;99.90;;;;;;5031384;28;20040;-54
2023/10/19 08:20:31;;;;;;;4.72;2.92;;;14.70;99.90;;;;;;5031441;28;20034;-55
2023/10/19 08:22:59;;;;;;;3.40;2.13;;;14.70;99.90;;;;;;5046544;28;20029;-52
2023/10/19 08:25:28;;;;;;;5.80;2.45;;;14.80;99.90;;;;;;5037452;28;20075;-50
2023/10/19 08:27:56;;;;;;;;;;;14.80;99.90;;;;;;5042614;28;20051;-54
2023/10/19 08:30:22;;;;;;;10.23;3.40;;;14.80;99.90;;;;;;5038542;28;19962;-55
2023/10/19 08:32:51;;;;;;;5.35;2.63;;;14.80;99.90;;;;;;5047386;28;20280;-53
2023/10/19 08:35:20;;;;;;;6.97;3.15;;;14.90;99.90;;;;;;5038310;28;20033;-50
2023/10/19 08:37:47;;;;;;;;;;;14.90;99.90;;;;;;5046696;28;20484;-54
2023/10/19 08:40:14;;;;;;;7.75;3.00;;;14.90;99.90;;;;;;5028952;28;19909;-55
2023/10/19 08:42:48;;;;;;;8.38;2.80;;;15.00;99.90;;;;;;5022239;28;20071;-52
2023/10/19 08:45:14;;;;;;;5.30;2.38;;;15.10;99.90;;;;;;5043449;28;20400;-52
2023/10/19 08:47:58;;;;;;;6.75;2.47;;;15.10;99.90;;;;;;5034113;28;20022;-54
2023/10/19 08:50:28;;;;;;;4.95;2.30;;;15.10;99.90;;;;;;5035625;28;20112;-53
2023/10/19 08:52:56;;;;;;;5.05;2.15;;;15.10;99.90;;;;;;5037978;28;20106;-54
2023/10/19 08:55:22;;;;;;;4.35;2.15;;;15.10;99.90;;;;;;5040367;28;20044;-54
2023/10/19 08:57:51;;;;;;;4.95;2.47;;;15.20;99.90;;;;;;5033981;28;20030;-54
2023/10/19 09:00:18;;;;;;;6.30;2.75;;;15.20;99.90;;;;;;5031747;28;20030;-54
2023/10/19 09:02:47;;;;;;;7.72;2.10;;;15.20;99.90;;;;;;5039083;28;20025;-52
2023/10/19 09:05:22;;;;;;;;;;;15.30;99.90;;;;;;5033937;28;20112;-53
2023/10/19 09:07:54;;;;;;;7.05;2.00;;;15.30;99.90;;;;;;5044008;28;19956;-53
2023/10/19 09:10:25;;;;;;;2.75;1.70;;;15.30;99.90;;;;;;5041924;28;20041;-54
2023/10/19 09:13:07;;;;;;;4.65;2.10;;;15.40;99.90;;;;;;5040276;28;20108;-53
2023/10/19 09:15:35;;;;;;;5.97;2.08;;;15.40;99.90;;;;;;5038065;28;20025;-54
2023/10/19 09:18:16;;;;;;;9.50;2.45;;;15.50;99.90;;;;;;5035654;28;20441;-54
2023/10/19 09:20:54;;;;;;;6.80;2.05;;;15.60;99.90;;;;;;5032099;28;20017;-54
2023/10/19 09:23:25;;;;;;;5.10;1.80;;;15.70;99.90;;;;;;5033913;28;20029;-54
2023/10/19 09:25:54;;;;;;;5.45;2.28;;;15.80;99.90;;;;;;5032427;28;20038;-55
2023/10/19 09:28:24;;;;;;;3.67;1.65;;;16.00;99.90;;;;;;5042255;28;20017;-55
2023/10/19 09:30:50;;;;;;;4.40;1.80;;;16.10;99.90;;;;;;5037215;28;20021;-55
2023/10/19 09:33:17;;;;;;;3.08;1.70;;;16.20;99.90;;;;;;5040736;28;20205;-54
2023/10/19 09:35:52;;;;;;;4.60;1.80;;;16.30;99.90;;;;;;5035719;28;20500;-55
2023/10/19 09:38:21;;;;;;;2.92;1.60;;;16.30;99.90;;;;;;5044375;28;20171;-53
2023/10/19 09:40:51;;;;;;;6.28;1.63;;;16.40;99.90;;;;;;5008080;28;20013;-55
2023/10/19 09:43:26;;;;;;;4.30;1.63;;;16.60;99.90;;;;;;5048645;28;20029;-54
2023/10/19 09:45:57;;;;;;;4.97;1.42;;;16.80;99.90;;;;;;5042986;28;20048;-55
2023/10/19 09:48:22;;;;;;;4.15;1.42;;;17.00;99.90;;;;;;5039138;28;20067;-56
2023/10/19 09:50:55;;;;;;;2.60;1.83;;;17.60;99.90;;;;;;5034990;28;20116;-51
2023/10/19 09:53:27;;;;;;;3.75;1.30;;;18.40;99.90;;;;;;5040114;28;20021;-52
2023/10/19 09:55:56;;;;;;;5.03;1.55;;;18.70;99.90;;;;;;5042017;28;20477;-54
2023/10/19 09:58:26;;;;;;;4.75;1.58;;;18.60;99.90;;;;;;5050828;28;20124;-52
2023/10/19 10:00:51;;;;;;;3.65;1.23;;;18.50;99.90;;;;;;5051943;28;20032;-52
2023/10/19 10:03:46;;;;;;;5.97;1.52;;;18.60;99.90;;;;;;5042361;28;21176;-53
2023/10/19 10:06:14;;;;;;;4.18;1.33;;;18.90;99.90;;;;;;5053278;28;20110;-49
2023/10/19 10:08:42;;;;;;;3.03;1.08;;;19.40;99.90;;;;;;5053381;28;20083;-52
2023/10/19 10:11:23;;;;;;;9.75;1.30;;;19.80;99.90;;;;;;5024957;28;20083;-52
2023/10/19 10:13:52;;;;;;;4.03;1.00;;;20.20;99.90;;;;;;5006440;28;20117;-52
2023/10/19 10:16:21;;;;;;;4.38;1.20;;;20.40;99.90;;;;;;5031762;28;20173;-52
2023/10/19 10:18:50;;;;;;;4.95;1.27;;;20.30;99.90;;;;;;5026235;28;20059;-51
2023/10/19 10:21:24;;;;;;;5.10;1.20;;;20.40;99.90;;;;;;5016902;28;20037;-54
2023/10/19 10:23:52;;;;;;;3.55;1.13;;;20.40;99.90;;;;;;5039069;28;20053;-50
2023/10/19 10:26:26;;;;;;;5.85;1.02;;;20.30;99.90;;;;;;5039707;28;20135;-53
2023/10/19 10:29:27;;;;;;;7.18;1.27;;;20.10;99.90;;;;;;5037643;28;20030;-51
2023/10/19 10:31:53;;;;;;;2.17;1.25;;;20.10;99.90;;;;;;5027534;28;20036;-52
2023/10/19 10:34:37;;;;;;;11.80;4.60;;;20.10;99.90;;;;;;5037895;28;20033;-53
2023/10/19 10:37:10;;;;;;;6.57;1.20;;;20.40;99.90;;;;;;5039613;28;20394;-53
2023/10/19 10:39:39;;;;;;;4.80;1.13;;;20.60;99.90;;;;;;5048026;28;20017;-51
2023/10/19 10:42:09;;;;;;;2.38;0.70;;;20.60;99.90;;;;;;5049438;28;20029;-53
2023/10/19 10:44:35;;;;;;;5.65;0.88;;;20.50;99.90;;;;;;5040051;28;20029;-53
2023/10/19 10:47:01;;;;;;;3.88;0.90;;;20.40;99.90;;;;;;5044510;28;20061;-54
2023/10/19 10:49:27;;;;;;;6.45;1.10;;;20.40;99.90;;;;;;5038927;28;20025;-53
2023/10/19 10:51:54;;;;;;;7.55;1.10;;;20.40;99.90;;;;;;5047093;28;20425;-56
2023/10/19 10:54:23;;;;;;;2.95;0.75;;;20.50;99.90;;;;;;5040529;28;20115;-55
2023/10/19 10:56:49;;;;;;;;;;;20.50;99.90;;;;;;5036263;28;20317;-56
2023/10/19 10:59:15;;;;;;;3.70;1.00;;;20.40;99.90;;;;;;5041098;28;19971;-56
2023/10/19 11:01:42;;;;;;;7.18;1.00;;;20.20;99.90;;;;;;5044085;28;20130;-56
2023/10/19 11:04:12;;;;;;;5.03;1.27;;;20.10;99.90;;;;;;5024589;28;20398;-56
2023/10/19 11:06:57;;;;;;;2.55;1.10;;;20.00;99.90;;;;;;5052544;28;20389;-50
2023/10/19 11:09:22;;;;;;;4.28;1.17;;;20.20;99.90;;;;;;5041935;28;20451;-51
2023/10/19 11:11:54;;;;;;;7.32;1.10;;;20.20;99.90;;;;;;5039100;28;20036;-53
2023/10/19 11:14:23;;;;;;;6.50;1.17;;;20.30;99.90;;;;;;5033365;28;20050;-54
2023/10/19 11:16:49;;;;;;;6.05;1.20;;;20.30;99.90;;;;;;5030440;28;20500;-55
2023/10/19 11:19:15;;;;;;;3.65;0.90;;;20.40;99.90;;;;;;5032003;28;20053;-54
2023/10/19 11:21:52;;;;;;;3.90;1.10;;;20.50;99.90;;;;;;5030996;28;20037;-53
2023/10/19 11:24:26;;;;;;;8.45;1.35;;;20.70;99.90;;;;;;5037615;28;20112;-51
2023/10/19 11:26:51;;;;;;;4.75;1.02;;;20.70;99.90;;;;;;5033237;28;20104;-55
2023/10/19 11:29:17;;;;;;;3.17;1.00;;;20.70;99.90;;;;;;5037218;28;20136;-54
2023/10/19 11:31:56;;;;;;;4.57;0.93;;;20.60;99.90;;;;;;5035197;28;20029;-54
2023/10/19 11:34:22;;;;;;;6.32;1.33;;;20.60;99.90;;;;;;5034454;28;20021;-54
2023/10/19 11:36:52;;;;;;;5.88;1.15;;;20.90;99.90;;;;;;5029877;28;20026;-51
2023/10/19 11:39:19;;;;;;;5.13;1.30;;;21.20;99.90;;;;;;5037576;28;20103;-54
2023/10/19 11:41:44;;;;;;;3.70;1.23;;;21.60;99.90;;;;;;5037985;28;20037;-55
2023/10/19 11:44:10;;;;;;;4.78;1.15;;;21.70;99.90;;;;;;5016438;28;20043;-53
2023/10/19 11:46:35;;;;;;;2.60;0.95;;;21.50;99.90;;;;;;5029689;28;20472;-53
2023/10/19 11:49:03;;;;;;;3.03;1.50;;;21.10;99.90;;;;;;5016410;28;20040;-53
2023/10/19 11:51:31;;;;;;;6.90;1.30;;;20.70;99.90;;;;;;5029615;28;20025;-53
2023/10/19 11:53:56;;;;;;;5.88;1.33;;;20.30;99.90;;;;;;5029531;28;20033;-54
2023/10/19 11:56:25;;;;;;;5.95;1.30;;;20.00;99.90;;;;;;5033475;28;20125;-52
2023/10/19 11:58:50;;;;;;;5.40;0.95;;;19.80;99.90;;;;;;5024897;28;20501;-51
2023/10/19 12:01:19;;;;;;;3.75;0.95;;;19.60;99.90;;;;;;5032648;28;20063;-54
2023/10/19 12:03:48;;;;;;;5.70;1.30;;;19.50;99.90;;;;;;5035394;28;20036;-53
2023/10/19 12:06:18;;;;;;;4.22;1.00;;;19.40;99.90;;;;;;5032583;28;20025;-51
2023/10/19 12:08:44;;;;;;;4.43;1.08;;;19.40;99.90;;;;;;5031989;28;20032;-53
2023/10/19 12:11:19;;;;;;;7.50;1.25;;;19.40;99.90;;;;;;5035384;28;20604;-51
2023/10/19 12:13:45;;;;;;;4.40;0.90;;;19.30;99.90;;;;;;5041464;28;20044;-54
2023/10/19 12:16:12;;;;;;;6.03;1.35;;;19.40;99.90;;;;;;5017808;28;20029;-51
2023/10/19 12:18:44;;;;;;;7.80;1.42;;;19.40;99.90;;;;;;5030773;28;20211;-51
2023/10/19 12:21:18;;;;;;;7.55;1.60;;;19.40;99.90;;;;;;5036656;28;20037;-53
2023/10/19 12:23:44;;;;;;;4.20;1.00;;;19.40;99.90;;;;;;5029576;28;20136;-50
2023/10/19 12:26:14;;;;;;;4.57;1.02;;;19.50;99.90;;;;;;5027123;28;20033;-50
2023/10/19 12:28:41;;;;;;;5.93;1.65;;;19.40;99.90;;;;;;5034920;28;20048;-52
2023/10/19 12:31:10;;;;;;;6.80;1.23;;;19.30;99.90;;;;;;5011425;28;20537;-54
2023/10/19 12:33:38;;;;;;;4.47;1.15;;;19.20;99.90;;;;;;5028751;28;20767;-50
2023/10/19 12:36:23;;;;;;;5.88;1.20;;;19.10;99.90;;;;;;5035947;28;20171;-55
2023/10/19 12:38:50;;;;;;;4.50;1.10;;;19.10;99.90;;;;;;5035721;28;20029;-51
2023/10/19 12:41:18;;;;;;;6.80;1.58;;;19.10;99.90;;;;;;5031084;28;20041;-54
2023/10/19 12:43:43;;;;;;;3.88;1.00;;;19.10;99.90;;;;;;5035226;28;20041;-55
2023/10/19 12:46:11;;;;;;;4.95;1.05;;;19.00;99.90;;;;;;5035104;28;20473;-55
2023/10/19 12:48:37;;;;;;;3.67;1.13;;;19.00;99.90;;;;;;5042536;28;20446;-55
2023/10/19 12:51:06;;;;;;;7.57;0.88;;;18.80;99.90;;;;;;5034703;28;20068;-56
2023/10/19 12:53:32;;;;;;;7.22;0.80;;;18.70;99.90;;;;;;5039238;28;20092;-55
2023/10/19 12:55:59;;;;;;;5.07;0.93;;;18.50;99.90;;;;;;5031228;28;20026;-56
2023/10/19 12:58:27;;;;;;;4.20;1.15;;;18.50;99.90;;;;;;5029327;28;20071;-55
2023/10/19 13:00:54;;;;;;;4.30;1.10;;;18.50;99.90;;;;;;5032636;28;20021;-55
2023/10/19 13:03:21;;;;;;;4.35;1.08;;;18.40;99.90;;;;;;5037204;28;20040;-55
2023/10/19 13:05:49;;;;;;;3.20;1.00;;;18.40;99.90;;;;;;5035009;28;20036;-55
2023/10/19 13:08:15;;;;;;;4.40;1.17;;;18.50;99.90;;;;;;5037141;28;20440;-52
2023/10/19 13:10:48;;;;;;;4.90;1.27;;;18.40;99.90;;;;;;5018925;28;20037;-53
2023/10/19 13:13:14;;;;;;;3.30;0.85;;;18.40;99.90;;;;;;5035528;28;20480;-55
2023/10/19 13:15:45;;;;;;;2.58;1.00;;;18.50;99.90;;;;;;5035749;28;20029;-53